Time;durP1;ratioP1;P1;durP2;ratioP2;P2;SDS_P1;SDS_P2;PMS_P1;PMS_P2;Temp;Humidity;BMP_temperature;BMP_pressure;BME280_temperature;BME280_humidity;BME280_pressure;Samples;Min_cycle;Max_cycle;Signal;HPM_P1;HPM_P2
2021/09/03 00:01:15;;;;;;;7.00;3.92;;;;;;;6.21;100.00;99548.48;1714279;83;20841;-63
2021/09/03 00:03:42;;;;;;;4.33;3.50;;;;;;;6.19;100.00;99542.03;1714466;83;21032;-62
2021/09/03 00:06:09;;;;;;;6.92;3.85;;;;;;;6.22;100.00;99540.77;1714327;82;20940;-64
2021/09/03 00:08:37;;;;;;;5.15;3.50;;;;;;;6.22;100.00;99546.93;1714567;83;20913;-63
2021/09/03 00:11:04;;;;;;;6.60;4.17;;;;;;;6.23;100.00;99541.88;1714425;83;20951;-62
2021/09/03 00:13:32;;;;;;;5.12;3.60;;;;;;;6.25;100.00;99548.33;1714407;82;21470;-63
2021/09/03 00:16:01;;;;;;;6.17;4.00;;;;;;;6.22;100.00;99548.75;1714421;83;20948;-63
2021/09/03 00:18:29;;;;;;;7.00;4.20;;;;;;;6.17;100.00;99548.63;1714637;83;20886;-65
2021/09/03 00:20:56;;;;;;;6.80;3.62;;;;;;;6.13;100.00;99546.13;1714246;83;21089;-64
2021/09/03 00:23:23;;;;;;;7.42;3.80;;;;;;;6.08;100.00;99561.45;1714528;83;20937;-62
2021/09/03 00:25:52;;;;;;;8.90;4.37;;;;;;;6.06;100.00;99556.05;1714450;83;21430;-62
2021/09/03 00:28:19;;;;;;;8.30;4.20;;;;;;;6.01;100.00;99555.39;1714424;83;21559;-62
2021/09/03 00:30:45;;;;;;;6.55;3.95;;;;;;;5.97;100.00;99550.20;1714727;83;20936;-62
2021/09/03 00:33:12;;;;;;;7.33;3.87;;;;;;;5.93;100.00;99546.35;1714305;83;21145;-63
2021/09/03 00:35:40;;;;;;;7.60;3.58;;;;;;;5.91;100.00;99553.22;1714444;83;20988;-62
2021/09/03 00:38:06;;;;;;;15.25;4.25;;;;;;;5.90;100.00;99546.77;1714708;83;20944;-64
2021/09/03 00:40:33;;;;;;;5.87;3.50;;;;;;;5.87;100.00;99557.36;1714588;83;20960;-63
2021/09/03 00:42:59;;;;;;;4.65;3.83;;;;;;;5.88;100.00;99558.16;1714614;82;21003;-63
2021/09/03 00:45:26;;;;;;;7.10;4.25;;;;;;;5.87;100.00;99554.69;1714717;83;21220;-63
2021/09/03 00:47:52;;;;;;;7.45;3.87;;;;;;;5.86;100.00;99559.73;1714529;83;20956;-62
2021/09/03 00:50:19;;;;;;;4.10;3.30;;;;;;;5.88;100.00;99558.16;1714785;83;20917;-62
2021/09/03 00:52:46;;;;;;;12.43;4.62;;;;;;;5.91;100.00;99560.41;1714721;83;20913;-62
2021/09/03 00:55:12;;;;;;;4.45;3.92;;;;;;;5.92;100.00;99553.50;1714117;83;20960;-63
2021/09/03 00:57:39;;;;;;;5.55;4.00;;;;;;;5.92;100.00;99543.37;1714140;83;21101;-62
2021/09/03 01:00:08;;;;;;;5.12;3.62;;;;;;;5.91;100.00;99548.42;1714050;83;20889;-62
2021/09/03 01:02:34;;;;;;;7.12;3.80;;;;;;;5.88;100.00;99552.84;1714106;83;20869;-63
2021/09/03 01:05:01;;;;;;;4.28;3.42;;;;;;;5.83;100.00;99546.03;1716218;83;20992;-63
2021/09/03 01:07:27;;;;;;;9.20;3.87;;;;;;;5.82;100.00;99545.75;1716432;83;20833;-63
2021/09/03 01:09:54;;;;;;;12.82;3.85;;;;;;;5.78;100.00;99547.53;1716489;83;21139;-63
2021/09/03 01:12:21;;;;;;;8.80;4.03;;;;;;;5.74;100.00;99550.34;1716556;83;20889;-61
2021/09/03 01:14:49;;;;;;;11.50;4.22;;;;;;;5.72;100.00;99538.28;1716567;83;21303;-61
2021/09/03 01:17:15;;;;;;;4.30;3.90;;;;;;;5.71;100.00;99536.67;1716842;83;20933;-62
2021/09/03 01:19:42;;;;;;;10.90;3.75;;;;;;;5.71;100.00;99535.33;1716463;83;20972;-62
2021/09/03 01:22:08;;;;;;;8.40;4.17;;;;;;;5.70;100.00;99534.50;1716531;83;21119;-62
2021/09/03 01:24:35;;;;;;;6.10;3.75;;;;;;;5.68;100.00;99533.09;1714806;82;20964;-62
2021/09/03 01:27:01;;;;;;;7.40;4.47;;;;;;;5.63;100.00;99524.44;1689318;82;20980;-62
2021/09/03 01:29:28;;;;;;;4.90;3.67;;;;;;;5.55;100.00;99521.55;1713411;83;21312;-63
2021/09/03 01:31:55;;;;;;;4.95;3.80;;;;;;;5.52;100.00;99520.67;1702234;83;20908;-63
2021/09/03 01:34:22;;;;;;;5.37;4.17;;;;;;;5.51;100.00;99522.21;1716282;83;21175;-63
2021/09/03 01:36:49;;;;;;;8.15;3.95;;;;;;;5.50;100.00;99521.41;1716187;83;20904;-64
2021/09/03 01:39:15;;;;;;;3.42;3.12;;;;;;;5.49;100.00;99522.98;1716376;83;20907;-63
2021/09/03 01:41:42;;;;;;;4.90;3.67;;;;;;;5.48;100.00;99520.81;1716608;83;21406;-64
2021/09/03 01:44:10;;;;;;;6.72;4.10;;;;;;;5.43;100.00;99511.87;1714414;83;20992;-64
2021/09/03 01:46:37;;;;;;;7.10;4.17;;;;;;;5.41;100.00;99518.73;1716629;83;21123;-64
2021/09/03 01:49:04;;;;;;;8.33;3.80;;;;;;;5.42;100.00;99520.90;1715818;83;20983;-64
2021/09/03 01:51:30;;;;;;;5.30;3.60;;;;;;;5.38;100.00;99517.84;1716086;83;20940;-64
2021/09/03 01:53:57;;;;;;;3.60;3.30;;;;;;;5.37;100.00;99521.56;1716483;83;20909;-63
2021/09/03 01:56:23;;;;;;;4.83;4.03;;;;;;;5.37;100.00;99517.56;1714787;83;21410;-63
2021/09/03 01:58:50;;;;;;;7.45;3.90;;;;;;;5.35;100.00;99515.64;1714707;83;21077;-64
2021/09/03 02:01:17;;;;;;;5.10;3.80;;;;;;;5.31;100.00;99519.23;1714498;83;20913;-64
2021/09/03 02:03:44;;;;;;;24.90;4.60;;;;;;;5.32;100.00;99525.39;1714629;83;20932;-64
2021/09/03 02:06:10;;;;;;;4.25;3.52;;;;;;;5.33;100.00;99519.03;1714246;83;20924;-64
2021/09/03 02:08:39;;;;;;;4.62;3.70;;;;;;;5.30;100.00;99513.63;1714765;83;20952;-65
2021/09/03 02:11:07;;;;;;;4.62;3.27;;;;;;;5.26;100.00;99516.95;1714533;83;20916;-65
2021/09/03 02:13:33;;;;;;;5.67;3.95;;;;;;;5.25;100.00;99512.15;1714659;83;20961;-65
2021/09/03 02:16:02;;;;;;;4.28;3.87;;;;;;;5.26;100.00;99517.75;1714677;83;20952;-64
2021/09/03 02:18:28;;;;;;;5.70;4.20;;;;;;;5.25;100.00;99521.46;1714359;83;20964;-65
2021/09/03 02:20:55;;;;;;;13.30;4.03;;;;;;;5.22;100.00;99523.23;1714738;83;21356;-65
2021/09/03 02:23:21;;;;;;;8.08;4.22;;;;;;;5.23;100.00;99523.52;1714013;83;21115;-64
2021/09/03 02:25:48;;;;;;;4.97;3.92;;;;;;;5.24;100.00;99523.84;1714570;83;20991;-65
2021/09/03 02:28:15;;;;;;;11.22;4.53;;;;;;;5.23;100.00;99518.72;1714367;83;20924;-64
2021/09/03 02:30:43;;;;;;;7.72;3.65;;;;;;;5.19;100.00;99519.66;1714568;83;20952;-64
2021/09/03 02:33:10;;;;;;;5.78;3.92;;;;;;;5.14;100.00;99528.33;1714601;83;20991;-64
2021/09/03 02:35:37;;;;;;;7.30;3.80;;;;;;;5.13;100.00;99525.88;1714614;82;21678;-65
2021/09/03 02:38:03;;;;;;;7.20;3.67;;;;;;;5.10;100.00;99523.14;1714314;83;20921;-63
2021/09/03 02:40:30;;;;;;;5.17;4.00;;;;;;;5.07;100.00;99524.08;1714873;83;21438;-63
2021/09/03 02:42:58;;;;;;;6.72;4.12;;;;;;;5.06;100.00;99527.25;1714747;83;20932;-65
2021/09/03 02:45:24;;;;;;;7.05;4.45;;;;;;;5.02;100.00;99521.25;1714724;83;20932;-64
2021/09/03 02:47:51;;;;;;;4.92;3.80;;;;;;;4.98;100.00;99516.91;1714542;83;21757;-63
2021/09/03 02:50:17;;;;;;;6.03;3.75;;;;;;;4.99;100.00;99519.04;1714614;82;20834;-64
2021/09/03 02:52:46;;;;;;;3.85;3.55;;;;;;;4.92;100.00;99518.59;1712359;82;20991;-65
2021/09/03 02:55:14;;;;;;;5.67;3.67;;;;;;;4.93;100.00;99519.41;1716577;82;20957;-64
2021/09/03 02:57:41;;;;;;;6.40;4.55;;;;;;;4.93;100.00;99516.74;1723974;81;20928;-65
2021/09/03 03:00:09;;;;;;;7.97;4.10;;;;;;;4.94;100.00;99512.52;1718853;82;21162;-65
2021/09/03 03:02:36;;;;;;;6.17;4.25;;;;;;;4.93;100.00;99505.58;1746418;82;20995;-64
2021/09/03 03:05:03;;;;;;;9.00;4.37;;;;;;;4.91;100.00;99514.29;1746611;82;20924;-63
2021/09/03 03:07:29;;;;;;;6.10;4.00;;;;;;;4.91;100.00;99516.14;1746371;82;21478;-63
2021/09/03 03:09:56;;;;;;;4.35;4.00;;;;;;;4.88;100.00;99513.92;1744727;82;20830;-64
2021/09/03 03:12:22;;;;;;;7.08;3.92;;;;;;;4.86;100.00;99511.99;1710312;82;21117;-65
2021/09/03 03:14:49;;;;;;;6.10;4.03;;;;;;;4.83;100.00;99513.24;1691545;84;20929;-64
2021/09/03 03:17:17;;;;;;;4.92;4.28;;;;;;;4.82;100.00;99516.11;1690334;84;20845;-65
2021/09/03 03:19:45;;;;;;;4.80;4.40;;;;;;;4.77;100.00;99510.63;1691901;84;21022;-66
2021/09/03 03:22:12;;;;;;;6.17;4.87;;;;;;;4.76;100.00;99516.98;1691957;84;20986;-65
2021/09/03 03:24:38;;;;;;;4.55;4.15;;;;;;;4.73;100.00;99514.25;1692282;84;21403;-65
2021/09/03 03:27:05;;;;;;;8.95;4.62;;;;;;;4.72;100.00;99521.91;1691838;84;20968;-67
2021/09/03 03:29:32;;;;;;;5.15;4.08;;;;;;;4.75;100.00;99520.66;1691479;84;20979;-66
2021/09/03 03:31:59;;;;;;;9.38;4.25;;;;;;;4.78;100.00;99521.06;1691380;84;21010;-67
2021/09/03 03:34:26;;;;;;;5.85;4.25;;;;;;;4.83;100.00;99523.88;1691176;84;21046;-67
2021/09/03 03:36:54;;;;;;;8.58;4.45;;;;;;;4.86;100.00;99519.97;1692233;84;20909;-66
2021/09/03 03:39:22;;;;;;;9.25;4.10;;;;;;;4.91;100.00;99521.46;1691925;84;20893;-67
2021/09/03 03:41:50;;;;;;;5.47;4.10;;;;;;;4.94;100.00;99523.16;1691506;84;20956;-66
2021/09/03 03:44:16;;;;;;;4.20;3.80;;;;;;;4.97;100.00;99523.76;1692243;84;20932;-67
2021/09/03 03:46:44;;;;;;;5.55;4.60;;;;;;;5.05;100.00;99530.16;1692159;84;20987;-67
2021/09/03 03:49:11;;;;;;;11.35;3.95;;;;;;;5.12;100.00;99522.90;1692207;84;22239;-67
2021/09/03 03:51:38;;;;;;;8.75;4.17;;;;;;;5.19;100.00;99530.30;1691902;84;20880;-67
2021/09/03 03:54:05;;;;;;;8.38;3.72;;;;;;;5.26;100.00;99533.72;1692193;84;21046;-66
2021/09/03 03:56:31;;;;;;;6.92;4.05;;;;;;;5.33;100.00;99527.02;1685162;84;20929;-65
2021/09/03 03:58:59;;;;;;;5.50;4.62;;;;;;;5.41;100.00;99525.38;1683249;84;21340;-65
2021/09/03 04:01:26;;;;;;;4.45;3.80;;;;;;;5.51;100.00;99519.06;1617643;87;21220;-66
2021/09/03 04:03:52;;;;;;;7.90;4.05;;;;;;;5.63;100.00;99529.76;1637264;87;21007;-63
2021/09/03 04:06:19;;;;;;;10.32;5.37;;;;;;;5.71;100.00;99530.01;1638301;87;21012;-65
2021/09/03 04:08:46;;;;;;;5.78;3.90;;;;;;;5.78;100.00;99523.56;1655463;84;20940;-64
2021/09/03 04:11:14;;;;;;;;;;;;;;;5.89;100.00;99526.52;1684250;84;20958;-65
2021/09/03 04:13:42;;;;;;;3.72;3.42;;;;;;;5.96;100.00;99524.61;1682914;85;20120;-65
2021/09/03 04:16:11;;;;;;;4.28;3.77;;;;;;;6.06;100.00;99522.75;1682931;84;20988;-65
2021/09/03 04:18:38;;;;;;;3.83;3.37;;;;;;;6.16;100.00;99521.69;1683612;84;21380;-65
2021/09/03 04:21:07;;;;;;;12.50;4.20;;;;;;;6.27;100.00;99518.27;1683286;85;20965;-66
2021/09/03 04:23:34;;;;;;;7.12;3.62;;;;;;;6.37;100.00;99516.36;1675388;85;21351;-66
2021/09/03 04:26:01;;;;;;;6.15;3.60;;;;;;;6.50;100.00;99524.19;1673363;85;21189;-66
2021/09/03 04:28:27;;;;;;;4.70;3.85;;;;;;;6.64;100.00;99523.48;1673557;85;20885;-66
2021/09/03 04:30:54;;;;;;;8.70;3.62;;;;;;;6.75;100.00;99513.33;1673403;85;21415;-66
2021/09/03 04:33:20;;;;;;;9.18;3.60;;;;;;;6.83;100.00;99514.84;1673839;85;21012;-65
2021/09/03 04:35:47;;;;;;;6.72;3.37;;;;;;;6.98;100.00;99517.91;1673298;85;20906;-66
2021/09/03 04:38:13;;;;;;;5.00;3.77;;;;;;;7.12;100.00;99517.67;1673771;85;21136;-66
2021/09/03 04:40:40;;;;;;;9.20;3.33;;;;;;;7.22;100.00;99512.03;1673499;85;21016;-67
2021/09/03 04:43:07;;;;;;;5.08;3.50;;;;;;;7.38;100.00;99517.20;1673465;85;21297;-67
2021/09/03 04:45:33;;;;;;;4.10;3.70;;;;;;;7.57;100.00;99516.55;1673758;85;21440;-67
2021/09/03 04:48:00;;;;;;;3.20;2.90;;;;;;;7.72;100.00;99514.19;1673828;85;20992;-67
2021/09/03 04:50:26;;;;;;;6.90;3.30;;;;;;;7.91;100.00;99520.69;1673535;85;21217;-67
2021/09/03 04:52:54;;;;;;;5.40;2.77;;;;;;;7.99;100.00;99514.99;1673540;84;20913;-67
2021/09/03 04:55:21;;;;;;;4.00;2.85;;;;;;;8.24;100.00;99512.52;1673811;84;20968;-67
2021/09/03 04:57:48;;;;;;;7.22;3.00;;;;;;;8.38;100.00;99514.66;1675409;85;21028;-68
2021/09/03 05:00:17;;;;;;;3.25;2.60;;;;;;;8.45;100.00;99515.05;1608307;85;20917;-67
2021/09/03 05:02:45;;;;;;;5.00;2.85;;;;;;;8.52;100.00;99518.39;1675509;85;21127;-68
2021/09/03 05:05:11;;;;;;;5.83;3.20;;;;;;;8.66;100.00;99516.22;1677201;85;20953;-68
2021/09/03 05:07:39;;;;;;;3.17;2.80;;;;;;;8.82;100.00;99523.97;1679724;85;20873;-67
2021/09/03 05:10:08;;;;;;;4.67;2.60;;;;;;;8.97;100.00;99521.02;1678975;85;20889;-67
2021/09/03 05:12:36;;;;;;;4.22;2.60;;;;;;;9.21;100.00;99522.17;1679549;85;20901;-68
2021/09/03 05:15:14;;;;;;;2.98;2.35;;;;;;;9.43;100.00;99518.20;1679121;85;21460;-67
2021/09/03 05:17:43;;;;;;;5.03;3.25;;;;;;;9.45;100.00;99525.46;1676974;85;20877;-68
2021/09/03 05:20:12;;;;;;;4.75;2.22;;;;;;;9.45;100.00;99525.46;1679397;85;21731;-68
2021/09/03 05:22:40;;;;;;;5.17;2.75;;;;;;;9.73;100.00;99527.73;1679311;85;20968;-67
2021/09/03 05:25:09;;;;;;;3.83;2.80;;;;;;;9.84;100.00;99527.58;1681253;85;20953;-68
2021/09/03 05:27:37;;;;;;;4.28;2.70;;;;;;;9.99;100.00;99526.95;1682530;84;21035;-67
2021/09/03 05:30:08;;;;;;;9.00;2.70;;;;;;;9.99;100.00;99528.83;1661945;83;20948;-68
2021/09/03 05:32:36;;;;;;;4.47;2.37;;;;;;;10.23;100.00;99523.47;1718097;83;20957;-68
2021/09/03 05:35:05;;;;;;;6.12;2.42;;;;;;;10.39;100.00;99520.46;1696903;83;20940;-68
2021/09/03 05:37:34;;;;;;;6.45;2.42;;;;;;;10.56;100.00;99522.20;1712591;83;20948;-68
2021/09/03 05:40:01;;;;;;;4.40;2.80;;;;;;;10.72;100.00;99515.92;1716474;83;21865;-68
2021/09/03 05:42:30;;;;;;;6.25;2.42;;;;;;;10.85;100.00;99515.52;1716588;83;20991;-68
2021/09/03 05:44:56;;;;;;;3.33;2.30;;;;;;;11.13;100.00;99519.73;1716191;83;21465;-67
2021/09/03 05:47:24;;;;;;;4.25;2.98;;;;;;;11.42;100.00;99523.42;1694043;83;21390;-67
2021/09/03 05:49:51;;;;;;;6.58;3.83;;;;;;;11.48;100.00;99521.03;1715614;83;20999;-68
2021/09/03 05:52:17;;;;;;;11.88;4.62;;;;;;;11.55;100.00;99519.45;1713725;83;21208;-68
2021/09/03 05:54:46;;;;;;;;;;;;;;;11.67;100.00;99521.41;1687065;84;20880;-68
2021/09/03 05:57:13;;;;;;;10.72;4.08;;;;;;;11.85;100.00;99524.70;1687144;85;20182;-66
2021/09/03 05:59:39;;;;;;;5.20;3.22;;;;;;;12.02;100.00;99528.03;1687383;84;21030;-65
2021/09/03 06:02:06;;;;;;;5.95;2.90;;;;;;;12.09;100.00;99525.09;1686959;85;21007;-66
2021/09/03 06:04:34;;;;;;;6.35;2.67;;;;;;;11.77;100.00;99524.67;1686907;84;21102;-66
2021/09/03 06:07:01;;;;;;;4.87;2.52;;;;;;;12.22;100.00;99513.31;1708681;83;21063;-65
2021/09/03 06:09:27;;;;;;;4.50;2.90;;;;;;;12.53;100.00;99516.05;1714680;83;21387;-65
2021/09/03 06:11:55;;;;;;;3.07;2.30;;;;;;;12.42;100.00;99513.89;1712287;83;21038;-66
2021/09/03 06:14:22;;;;;;;6.67;3.10;;;;;;;12.39;100.00;99516.28;1713175;83;21689;-64
2021/09/03 06:16:50;;;;;;;6.75;2.60;;;;;;;12.38;100.00;99514.69;1714200;83;21775;-65
2021/09/03 06:19:17;;;;;;;6.97;2.60;;;;;;;12.68;100.00;99503.67;1715849;83;20830;-65
2021/09/03 06:21:44;;;;;;;5.97;3.10;;;;;;;12.69;100.00;99502.08;1705124;83;21494;-66
2021/09/03 06:24:30;;;;;;;4.97;2.70;;;;;;;12.77;100.00;99500.18;1707158;83;21407;-66
2021/09/03 06:27:05;;;;;;;6.90;2.37;;;;;;;13.44;100.00;99505.52;1649033;85;21491;-65
2021/09/03 06:29:45;;;;;;;3.87;2.10;;;;;;;13.42;100.00;99501.73;1637897;86;21106;-66
2021/09/03 06:32:17;;;;;;;3.87;2.22;;;;;;;13.58;100.00;99509.80;1687507;83;21084;-65
2021/09/03 06:34:57;;;;;;;3.62;2.20;;;;;;;13.71;100.00;99512.70;1710891;83;21458;-66
2021/09/03 06:37:25;;;;;;;3.58;2.45;;;;;;;13.82;100.00;99517.53;1653413;85;21045;-68
2021/09/03 06:43:46;;;;;;;5.00;1.92;;;;;;;14.40;100.00;99518.30;1555948;91;20948;-66
2021/09/03 06:46:11;;;;;;;;;;;;;;;14.45;100.00;99522.87;1561577;92;21666;-65
2021/09/03 06:48:37;;;;;;;4.03;1.87;;;;;;;14.52;100.00;99516.61;1559500;92;20140;-64
2021/09/03 06:51:04;;;;;;;4.53;2.53;;;;;;;14.50;100.00;99520.13;1559691;90;21029;-64
2021/09/03 06:53:31;;;;;;;3.77;1.90;;;;;;;14.57;100.00;99515.26;1559457;92;22017;-64
2021/09/03 06:55:58;;;;;;;4.62;2.27;;;;;;;14.61;100.00;99510.91;1561950;90;21112;-65
2021/09/03 06:58:24;;;;;;;6.90;2.67;;;;;;;14.85;100.00;99512.91;1583320;90;21042;-63
2021/09/03 07:00:51;;;;;;;4.35;2.60;;;;;;;15.09;96.10;99515.13;1583757;90;21057;-66
2021/09/03 07:03:17;;;;;;;7.95;2.50;;;;;;;15.14;96.13;99511.02;1583546;90;21005;-64
2021/09/03 07:05:44;;;;;;;3.50;1.92;;;;;;;15.57;96.50;99517.88;1583609;90;21503;-65
2021/09/03 07:08:10;;;;;;;4.15;2.02;;;;;;;15.73;95.18;99514.49;1583663;89;21237;-64
2021/09/03 07:10:37;;;;;;;2.47;1.57;;;;;;;16.08;92.86;99524.61;1584286;90;21348;-65
2021/09/03 07:13:03;;;;;;;1.50;1.20;;;;;;;15.82;85.53;99516.80;1583983;89;20978;-64
2021/09/03 07:15:29;;;;;;;2.47;1.62;;;;;;;15.78;89.24;99525.25;1627418;86;20911;-63
2021/09/03 07:17:56;;;;;;;3.70;1.95;;;;;;;15.99;88.95;99523.09;1636458;87;20919;-64
2021/09/03 07:20:22;;;;;;;4.20;2.20;;;;;;;16.05;83.17;99526.00;1686446;83;21046;-64
2021/09/03 07:22:51;;;;;;;5.87;2.87;;;;;;;15.86;83.87;99508.36;1722918;83;21696;-65
2021/09/03 07:25:17;;;;;;;4.90;1.80;;;;;;;16.17;87.55;99515.27;1724066;83;20991;-66
2021/09/03 07:27:43;;;;;;;3.95;1.90;;;;;;;16.17;87.55;99515.27;1724149;83;20916;-67
2021/09/03 07:30:11;;;;;;;3.83;1.85;;;;;;;16.21;83.87;99510.34;1724382;83;20963;-66
2021/09/03 07:32:43;;;;;;;2.27;1.50;;;;;;;15.99;83.41;99508.75;1724144;83;20948;-67
2021/09/03 07:35:11;;;;;;;2.15;1.60;;;;;;;15.76;84.85;99499.58;1724113;83;20967;-67
2021/09/03 07:37:41;;;;;;;4.55;1.45;;;;;;;16.16;82.30;99506.35;1724048;83;20876;-67
2021/09/03 07:40:09;;;;;;;6.92;1.37;;;;;;;16.37;82.16;99507.44;1724202;83;20900;-67
2021/09/03 07:42:36;;;;;;;2.62;1.32;;;;;;;16.28;80.37;99500.51;1724090;83;21050;-67
2021/09/03 07:45:05;;;;;;;4.17;1.20;;;;;;;16.30;81.32;99496.96;1724128;83;22338;-68
2021/09/03 07:47:31;;;;;;;6.03;1.47;;;;;;;16.24;82.43;99492.17;1723805;83;20940;-67
2021/09/03 07:49:58;;;;;;;2.62;1.40;;;;;;;16.53;79.35;99495.25;1705164;83;21031;-66
2021/09/03 07:52:25;;;;;;;2.80;1.42;;;;;;;16.34;79.79;99489.05;1691606;84;21055;-65
2021/09/03 07:54:52;;;;;;;4.00;1.70;;;;;;;16.34;80.21;99498.00;1692049;84;20935;-65
2021/09/03 07:57:18;;;;;;;2.02;1.55;;;;;;;16.27;81.30;99497.56;1690519;84;21768;-65
2021/09/03 07:59:46;;;;;;;;;;;;;;;16.41;81.44;99496.25;1691505;84;20901;-65
2021/09/03 08:02:12;;;;;;;3.85;1.50;;;;;;;16.39;80.67;99494.38;1682848;85;20814;-65
2021/09/03 08:04:39;;;;;;;2.40;1.40;;;;;;;16.78;78.92;99491.39;1679650;85;21015;-66
2021/09/03 08:07:07;;;;;;;;;;;;;;;16.26;78.91;99481.03;1681972;85;20975;-67
2021/09/03 08:09:33;;;;;;;2.47;1.75;;;;;;;15.82;82.24;99472.14;1679555;85;21110;-68
2021/09/03 08:12:01;;;;;;;;;;;;;;;15.82;82.24;99472.14;1681918;85;20936;-67
2021/09/03 08:14:30;;;;;;;9.30;2.33;;;;;;;15.58;83.75;99480.27;1679362;85;20115;-67
2021/09/03 08:16:57;;;;;;;3.83;1.65;;;;;;;15.77;81.87;99471.41;1679546;85;20940;-67
2021/09/03 08:19:23;;;;;;;4.62;1.57;;;;;;;15.76;82.10;99473.87;1679308;85;20940;-67
2021/09/03 08:21:50;;;;;;;3.95;2.25;;;;;;;15.86;80.06;99461.55;1679442;85;21124;-67
2021/09/03 08:24:17;;;;;;;6.50;2.95;;;;;;;16.33;80.79;99480.12;1679583;85;21054;-67
2021/09/03 08:26:48;;;;;;;2.47;1.80;;;;;;;16.41;75.97;99474.06;1679509;85;21466;-67
2021/09/03 08:29:14;;;;;;;3.30;2.37;;;;;;;16.14;78.61;99474.70;1679370;85;21435;-67
2021/09/03 08:31:42;;;;;;;2.80;1.90;;;;;;;15.77;77.98;99472.77;1679739;85;21411;-64
2021/09/03 08:34:08;;;;;;;1.98;1.72;;;;;;;15.91;77.55;99469.61;1679446;85;21873;-65
2021/09/03 08:36:37;;;;;;;4.05;2.52;;;;;;;15.90;80.32;99464.47;1679584;85;20964;-65
2021/09/03 08:39:04;;;;;;;5.80;2.47;;;;;;;16.50;77.33;99461.43;1679481;85;20924;-65
2021/09/03 08:41:31;;;;;;;3.55;2.40;;;;;;;16.68;73.96;99456.27;1679459;85;20991;-66
2021/09/03 08:43:59;;;;;;;6.35;2.35;;;;;;;16.92;73.97;99458.33;1679666;85;21018;-65
2021/09/03 08:46:27;;;;;;;2.92;2.02;;;;;;;17.16;72.58;99441.10;1679233;85;21115;-65
2021/09/03 08:48:53;;;;;;;8.88;2.55;;;;;;;16.79;73.65;99464.53;1679423;85;21494;-65
2021/09/03 08:51:20;;;;;;;6.90;2.25;;;;;;;16.79;73.65;99464.53;1679390;85;20992;-64
2021/09/03 08:53:46;;;;;;;3.45;2.35;;;;;;;16.83;72.14;99450.64;1679458;85;20921;-64
2021/09/03 08:56:13;;;;;;;5.37;1.90;;;;;;;16.83;72.14;99450.64;1679418;85;20988;-65
2021/09/03 08:58:40;;;;;;;6.80;2.60;;;;;;;16.84;71.72;99455.51;1675872;85;21234;-66
2021/09/03 09:01:13;;;;;;;4.87;2.40;;;;;;;16.61;72.62;99447.72;1675573;85;20956;-65
2021/09/03 09:03:48;;;;;;;4.70;2.40;;;;;;;16.50;74.30;99451.95;1676071;85;20937;-65
2021/09/03 09:06:25;;;;;;;3.50;2.08;;;;;;;17.12;72.03;99443.63;1675528;85;20941;-65
2021/09/03 09:09:06;;;;;;;4.10;2.47;;;;;;;17.06;72.05;99443.45;1675821;85;20988;-67
2021/09/03 09:11:37;;;;;;;5.45;2.58;;;;;;;16.61;73.50;99445.83;1677190;85;20953;-65
2021/09/03 09:14:12;;;;;;;3.02;2.08;;;;;;;16.61;73.27;99453.97;1683031;85;20912;-64
2021/09/03 09:16:40;;;;;;;4.22;2.58;;;;;;;17.16;71.17;99433.52;1683225;84;20881;-65
2021/09/03 09:19:07;;;;;;;10.70;2.75;;;;;;;17.53;69.82;99443.37;1675514;85;21280;-66
2021/09/03 09:21:38;;;;;;;6.00;2.25;;;;;;;17.93;68.16;99437.67;1673787;84;21361;-65
2021/09/03 09:24:13;;;;;;;4.92;2.25;;;;;;;18.03;67.21;99427.67;1673781;85;21092;-64
2021/09/03 09:26:51;;;;;;;9.08;2.30;;;;;;;18.12;68.47;99440.22;1673634;84;20965;-66
2021/09/03 09:29:27;;;;;;;8.05;2.10;;;;;;;17.69;69.24;99437.09;1673579;84;20990;-65
2021/09/03 09:32:03;;;;;;;4.55;2.20;;;;;;;17.99;68.07;99438.36;1673444;85;20893;-67
2021/09/03 09:34:35;;;;;;;5.85;2.42;;;;;;;17.49;68.66;99417.94;1673591;85;20992;-66
2021/09/03 09:37:05;;;;;;;4.85;2.20;;;;;;;17.50;69.57;99427.14;1673297;85;21130;-65
2021/09/03 09:39:57;;;;;;;4.72;2.30;;;;;;;18.03;67.43;99429.86;1673739;85;20917;-67
2021/09/03 09:42:29;;;;;;;4.45;2.40;;;;;;;18.02;66.67;99414.66;1673421;85;20842;-66
2021/09/03 09:45:04;;;;;;;4.83;2.42;;;;;;;17.95;66.21;99423.78;1673771;85;20896;-65
2021/09/03 09:47:30;;;;;;;4.78;2.02;;;;;;;17.84;63.34;99415.63;1673635;84;21015;-65
2021/09/03 09:49:57;;;;;;;4.30;2.10;;;;;;;17.77;63.00;99413.28;1673801;85;21067;-65
2021/09/03 09:52:37;;;;;;;4.28;2.52;;;;;;;18.02;63.54;99411.94;1673491;85;21012;-65
2021/09/03 09:55:04;;;;;;;4.95;2.47;;;;;;;18.11;62.43;99414.74;1673779;85;20976;-66
2021/09/03 09:57:33;;;;;;;3.90;2.65;;;;;;;18.39;60.18;99418.14;1674036;84;20921;-65
2021/09/03 10:00:03;;;;;;;6.58;2.30;;;;;;;18.60;60.54;99423.33;1678506;85;21345;-65
2021/09/03 10:02:35;;;;;;;3.75;2.45;;;;;;;18.56;57.94;99414.17;1679765;85;21119;-66
2021/09/03 10:12:10;;;;;;;5.25;3.22;;;;;;;18.47;55.53;99403.83;1589380;87;21465;-66
2021/09/03 10:14:37;;;;;;;4.43;2.53;;;;;;;18.71;58.37;99395.88;1609221;86;21035;-65
2021/09/03 10:20:41;;;;;;;3.40;2.20;;;;;;;17.98;59.20;99401.44;1656139;85;21507;-67
2021/09/03 10:23:08;;;;;;;3.05;2.20;;;;;;;18.19;58.53;99397.14;1581915;88;21478;-66
2021/09/03 10:25:52;;;;;;;3.62;2.45;;;;;;;18.14;57.61;99394.55;1651461;85;21492;-65
2021/09/03 10:28:27;;;;;;;4.70;2.80;;;;;;;18.17;61.05;99385.77;1641436;85;21396;-65
2021/09/03 10:31:09;;;;;;;10.13;2.27;;;;;;;17.96;62.39;99394.17;1646373;85;21797;-65
2021/09/03 10:33:38;;;;;;;11.30;2.60;;;;;;;18.05;60.87;99386.88;1646112;87;20977;-66
2021/09/03 10:36:05;;;;;;;5.53;2.62;;;;;;;18.34;58.91;99377.51;1629572;86;24799;-66
2021/09/03 10:38:33;;;;;;;7.60;3.40;;;;;;;18.79;57.60;99378.83;1641718;85;21063;-65
2021/09/03 10:41:01;;;;;;;6.58;2.95;;;;;;;18.62;58.13;99374.90;1647150;86;21501;-65
2021/09/03 10:43:46;;;;;;;;;;;;;;;18.77;61.20;99378.36;1717882;81;21328;-65
2021/09/03 10:46:15;;;;;;;5.03;2.85;;;;;;;18.71;60.68;99370.05;1751109;82;20140;-63
2021/09/03 10:48:50;;;;;;;5.20;3.15;;;;;;;18.58;58.82;99375.27;1751337;82;20899;-64
2021/09/03 10:51:35;;;;;;;6.30;2.67;;;;;;;18.49;57.58;99367.61;1751255;82;20875;-64
2021/09/03 10:54:17;;;;;;;6.58;2.70;;;;;;;18.33;58.79;99362.34;1751226;82;21540;-65
2021/09/03 10:56:57;;;;;;;5.00;2.30;;;;;;;18.19;59.52;99361.83;1734043;80;21312;-64
2021/09/03 10:59:24;;;;;;;6.53;2.72;;;;;;;18.70;58.02;99358.38;1815276;79;20916;-65
2021/09/03 11:01:53;;;;;;;3.52;2.60;;;;;;;18.49;58.22;99343.72;1815692;78;21344;-64
2021/09/03 11:04:22;;;;;;;6.12;2.85;;;;;;;18.35;59.06;99356.84;1815402;79;20845;-64
2021/09/03 11:07:07;;;;;;;5.87;2.98;;;;;;;18.58;60.00;99362.23;1815275;77;20896;-62
2021/09/03 11:09:33;;;;;;;9.03;2.72;;;;;;;18.61;59.85;99335.22;1815250;78;21481;-65
2021/09/03 11:12:10;;;;;;;7.00;3.22;;;;;;;18.77;59.87;99345.74;1772687;79;20865;-65
2021/09/03 11:14:38;;;;;;;5.05;2.30;;;;;;;18.96;58.48;99343.58;1757629;81;20968;-64
2021/09/03 11:17:13;;;;;;;6.58;2.50;;;;;;;18.78;58.62;99341.89;1757893;81;20900;-64
2021/09/03 11:19:48;;;;;;;7.33;2.30;;;;;;;18.82;59.64;99336.88;1755327;80;20854;-64
2021/09/03 11:22:18;;;;;;;4.17;2.27;;;;;;;19.06;57.26;99331.62;1749743;82;21152;-65
2021/09/03 11:24:52;;;;;;;5.30;2.72;;;;;;;19.18;58.03;99336.42;1749817;81;20893;-64
2021/09/03 11:30:20;;;;;;;6.15;2.42;;;;;;;18.79;58.78;99329.36;1701210;83;20977;-65
2021/09/03 11:32:47;;;;;;;4.90;2.02;;;;;;;18.78;58.11;99326.94;1701181;83;20919;-65
2021/09/03 11:35:15;;;;;;;11.60;3.10;;;;;;;18.57;58.20;99318.48;1701521;83;21759;-65
2021/09/03 11:37:48;;;;;;;3.75;2.10;;;;;;;18.51;58.03;99320.55;1702351;83;20979;-64
2021/09/03 11:40:18;;;;;;;4.08;2.60;;;;;;;18.60;58.54;99314.61;1701904;83;20981;-66
2021/09/03 11:42:56;;;;;;;4.35;2.17;;;;;;;18.52;57.97;99304.50;1702410;83;21533;-65
2021/09/03 11:45:30;;;;;;;4.70;2.37;;;;;;;18.58;59.04;99304.59;1702766;83;20897;-65
2021/09/03 11:48:03;;;;;;;6.90;2.37;;;;;;;18.85;59.06;99304.97;1702277;83;21125;-65
2021/09/03 11:50:41;;;;;;;3.58;2.35;;;;;;;19.11;56.76;99300.19;1706662;83;20974;-64
2021/09/03 11:53:16;;;;;;;3.05;1.67;;;;;;;19.18;55.93;99296.44;1703129;83;21447;-63
2021/09/03 11:55:46;;;;;;;6.65;2.40;;;;;;;19.09;56.97;99296.98;1703102;83;20918;-63
2021/09/03 11:58:13;;;;;;;3.60;2.10;;;;;;;19.19;57.79;99301.32;1703258;83;21386;-62